sensor_id;sensor_type;location;lat;lon;timestamp;pressure;altitude;pressure_sealevel;temperature;humidity
59055;BME280;44845;51.444;7.460;2023-03-16T00:00:20;100094.28;;;3.57;61.76
59055;BME280;44845;51.444;7.460;2023-03-16T00:02:46;100102.19;;;3.62;62.15
59055;BME280;44845;51.444;7.460;2023-03-16T00:05:12;100101.38;;;3.64;60.75
59055;BME280;44845;51.444;7.460;2023-03-16T00:07:39;100091.88;;;3.65;61.00
59055;BME280;44845;51.444;7.460;2023-03-16T00:10:06;100097.09;;;3.66;61.23
59055;BME280;44845;51.444;7.460;2023-03-16T00:12:32;100084.09;;;3.63;61.01
59055;BME280;44845;51.444;7.460;2023-03-16T00:14:59;100080.63;;;3.64;60.95
59055;BME280;44845;51.444;7.460;2023-03-16T00:17:25;100075.53;;;3.67;61.13
59055;BME280;44845;51.444;7.460;2023-03-16T00:19:53;100079.03;;;3.69;60.96
59055;BME280;44845;51.444;7.460;2023-03-16T00:22:19;100077.28;;;3.68;61.32
59055;BME280;44845;51.444;7.460;2023-03-16T00:24:45;100078.94;;;3.66;60.45
59055;BME280;44845;51.444;7.460;2023-03-16T00:27:12;100078.13;;;3.67;60.75
59055;BME280;44845;51.444;7.460;2023-03-16T00:29:43;100082.41;;;3.65;60.69
59055;BME280;44845;51.444;7.460;2023-03-16T00:32:19;100084.38;;;3.76;61.11
59055;BME280;44845;51.444;7.460;2023-03-16T00:34:46;100072.22;;;3.73;60.11
59055;BME280;44845;51.444;7.460;2023-03-16T00:37:13;100067.03;;;3.75;60.05
59055;BME280;44845;51.444;7.460;2023-03-16T00:39:43;100062.75;;;3.77;60.48
59055;BME280;44845;51.444;7.460;2023-03-16T00:42:11;100074.81;;;3.73;60.10
59055;BME280;44845;51.444;7.460;2023-03-16T00:44:37;100064.44;;;3.73;60.64
59055;BME280;44845;51.444;7.460;2023-03-16T00:47:06;100066.22;;;3.76;60.37
59055;BME280;44845;51.444;7.460;2023-03-16T00:49:32;100080.97;;;3.78;59.69
59055;BME280;44845;51.444;7.460;2023-03-16T00:52:03;100079.25;;;3.79;59.65
59055;BME280;44845;51.444;7.460;2023-03-16T00:54:29;100079.03;;;3.69;60.61
59055;BME280;44845;51.444;7.460;2023-03-16T00:56:57;100075.75;;;3.77;60.37
59055;BME280;44845;51.444;7.460;2023-03-16T00:59:22;100067.13;;;3.78;59.93
59055;BME280;44845;51.444;7.460;2023-03-16T01:01:50;100065.34;;;3.77;59.73
59055;BME280;44845;51.444;7.460;2023-03-16T01:04:16;100068.88;;;3.79;59.57
59055;BME280;44845;51.444;7.460;2023-03-16T01:06:41;100067.13;;;3.78;60.27
59055;BME280;44845;51.444;7.460;2023-03-16T01:09:07;100072.31;;;3.78;60.57
59055;BME280;44845;51.444;7.460;2023-03-16T01:11:33;100080.94;;;3.77;60.11
59055;BME280;44845;51.444;7.460;2023-03-16T01:13:59;100083.50;;;3.75;60.28
59055;BME280;44845;51.444;7.460;2023-03-16T01:16:25;100087.81;;;3.75;60.71
59055;BME280;44845;51.444;7.460;2023-03-16T01:18:51;100090.56;;;3.81;60.88
59055;BME280;44845;51.444;7.460;2023-03-16T01:21:17;100082.53;;;3.71;59.85
59055;BME280;44845;51.444;7.460;2023-03-16T01:23:42;100078.31;;;3.75;60.87
59055;BME280;44845;51.444;7.460;2023-03-16T01:26:08;100068.00;;;3.78;60.69
59055;BME280;44845;51.444;7.460;2023-03-16T01:28:34;100060.25;;;3.80;60.58
59055;BME280;44845;51.444;7.460;2023-03-16T01:31:03;100057.63;;;3.78;59.44
59055;BME280;44845;51.444;7.460;2023-03-16T01:33:29;100058.56;;;3.82;60.03
59055;BME280;44845;51.444;7.460;2023-03-16T01:35:57;100053.38;;;3.82;59.02
59055;BME280;44845;51.444;7.460;2023-03-16T01:38:23;100043.00;;;3.82;58.63
59055;BME280;44845;51.444;7.460;2023-03-16T01:40:50;100050.06;;;3.89;59.77
59055;BME280;44845;51.444;7.460;2023-03-16T01:43:17;100039.78;;;3.92;60.37
59055;BME280;44845;51.444;7.460;2023-03-16T01:51:16;100015.50;;;3.90;59.61
59055;BME280;44845;51.444;7.460;2023-03-16T01:53:55;100012.13;;;3.93;60.64
59055;BME280;44845;51.444;7.460;2023-03-16T01:56:23;100007.66;;;3.87;59.24
59055;BME280;44845;51.444;7.460;2023-03-16T01:58:52;100008.44;;;3.83;59.29
59055;BME280;44845;51.444;7.460;2023-03-16T02:01:24;100008.44;;;3.83;59.48
59055;BME280;44845;51.444;7.460;2023-03-16T02:03:54;100006.94;;;3.94;59.24
59055;BME280;44845;51.444;7.460;2023-03-16T02:06:21;100013.56;;;3.80;58.34
59055;BME280;44845;51.444;7.460;2023-03-16T02:08:48;100005.19;;;3.93;59.43
59055;BME280;44845;51.444;7.460;2023-03-16T02:11:14;99999.25;;;3.99;59.38
59055;BME280;44845;51.444;7.460;2023-03-16T02:13:43;99991.41;;;3.96;58.48
59055;BME280;44845;51.444;7.460;2023-03-16T02:16:09;99980.88;;;3.88;58.53
59055;BME280;44845;51.444;7.460;2023-03-16T02:18:36;99989.69;;;3.97;56.89
59055;BME280;44845;51.444;7.460;2023-03-16T02:21:06;99977.63;;;3.99;58.32
59055;BME280;44845;51.444;7.460;2023-03-16T02:23:36;99966.84;;;3.80;57.40
59055;BME280;44845;51.444;7.460;2023-03-16T02:26:26;99965.50;;;3.98;56.51
59055;BME280;44845;51.444;7.460;2023-03-16T02:31:57;99965.53;;;4.01;58.21
59055;BME280;44845;51.444;7.460;2023-03-16T02:34:24;99967.31;;;4.02;57.95
59055;BME280;44845;51.444;7.460;2023-03-16T02:36:51;99949.97;;;4.01;57.12
59055;BME280;44845;51.444;7.460;2023-03-16T02:39:18;99957.72;;;3.98;56.76
59055;BME280;44845;51.444;7.460;2023-03-16T02:41:44;99952.44;;;3.93;57.40
59055;BME280;44845;51.444;7.460;2023-03-16T02:44:14;99950.69;;;3.93;56.54
59055;BME280;44845;51.444;7.460;2023-03-16T02:46:42;99950.69;;;3.93;55.90
59055;BME280;44845;51.444;7.460;2023-03-16T02:51:34;99945.59;;;3.98;56.93
59055;BME280;44845;51.444;7.460;2023-03-16T02:53:59;99940.16;;;3.86;57.52
59055;BME280;44845;51.444;7.460;2023-03-16T02:56:25;99943.66;;;3.88;56.04
59055;BME280;44845;51.444;7.460;2023-03-16T02:58:51;99942.06;;;3.93;55.99
59055;BME280;44845;51.444;7.460;2023-03-16T03:01:16;99942.06;;;3.93;56.93
59055;BME280;44845;51.444;7.460;2023-03-16T03:03:41;99947.34;;;3.99;57.01
59055;BME280;44845;51.444;7.460;2023-03-16T03:06:08;99943.00;;;3.98;56.50
59055;BME280;44845;51.444;7.460;2023-03-16T03:08:33;99941.34;;;4.02;56.35
59055;BME280;44845;51.444;7.460;2023-03-16T03:10:59;99934.47;;;4.04;56.15
59055;BME280;44845;51.444;7.460;2023-03-16T03:13:24;99936.13;;;4.00;56.25
59055;BME280;44845;51.444;7.460;2023-03-16T03:15:50;99923.84;;;3.91;56.55
59055;BME280;44845;51.444;7.460;2023-03-16T03:18:16;99924.91;;;4.01;57.17
59055;BME280;44845;51.444;7.460;2023-03-16T03:20:42;99930.91;;;3.99;57.28
59055;BME280;44845;51.444;7.460;2023-03-16T03:23:07;99918.53;;;3.85;55.79
59055;BME280;44845;51.444;7.460;2023-03-16T03:25:33;99921.31;;;3.96;56.63
59055;BME280;44845;51.444;7.460;2023-03-16T03:27:59;99918.53;;;3.85;57.11
59055;BME280;44845;51.444;7.460;2023-03-16T03:30:26;99921.03;;;3.80;57.50
59055;BME280;44845;51.444;7.460;2023-03-16T03:32:52;99919.44;;;3.87;56.86
59055;BME280;44845;51.444;7.460;2023-03-16T03:35:19;99915.84;;;3.82;56.56
59055;BME280;44845;51.444;7.460;2023-03-16T03:37:45;99911.81;;;3.97;56.56
59055;BME280;44845;51.444;7.460;2023-03-16T03:40:13;99912.72;;;3.99;56.85
59055;BME280;44845;51.444;7.460;2023-03-16T03:42:40;99908.44;;;4.01;56.56
59055;BME280;44845;51.444;7.460;2023-03-16T03:45:06;99903.25;;;4.01;56.82
59055;BME280;44845;51.444;7.460;2023-03-16T03:47:32;99908.50;;;4.04;56.84
59055;BME280;44845;51.444;7.460;2023-03-16T03:49:58;99915.31;;;3.99;55.90
59055;BME280;44845;51.444;7.460;2023-03-16T03:52:23;99910.22;;;4.02;56.27
59055;BME280;44845;51.444;7.460;2023-03-16T03:54:48;99908.66;;;4.10;55.60
59055;BME280;44845;51.444;7.460;2023-03-16T03:57:14;99908.50;;;4.04;56.73
59055;BME280;44845;51.444;7.460;2023-03-16T03:59:39;99909.59;;;4.15;56.73
59055;BME280;44845;51.444;7.460;2023-03-16T04:02:11;99913.97;;;4.18;57.46
59055;BME280;44845;51.444;7.460;2023-03-16T04:04:38;99917.34;;;4.12;56.55
59055;BME280;44845;51.444;7.460;2023-03-16T04:07:03;99918.06;;;4.05;57.50
59055;BME280;44845;51.444;7.460;2023-03-16T04:09:29;99908.75;;;4.16;57.14
59055;BME280;44845;51.444;7.460;2023-03-16T04:11:58;99908.88;;;4.23;57.42
59055;BME280;44845;51.444;7.460;2023-03-16T04:14:23;99901.00;;;4.18;56.67
59055;BME280;44845;51.444;7.460;2023-03-16T04:16:49;99898.38;;;4.18;56.37
59055;BME280;44845;51.444;7.460;2023-03-16T04:19:14;99903.53;;;4.15;56.49
59055;BME280;44845;51.444;7.460;2023-03-16T04:21:39;99907.88;;;4.16;56.87
59055;BME280;44845;51.444;7.460;2023-03-16T04:24:05;99898.13;;;4.04;56.39
59055;BME280;44845;51.444;7.460;2023-03-16T04:26:31;99891.41;;;4.14;57.26
59055;BME280;44845;51.444;7.460;2023-03-16T04:28:57;99885.41;;;4.16;57.41
59055;BME280;44845;51.444;7.460;2023-03-16T04:31:22;99877.59;;;4.16;56.65
59055;BME280;44845;51.444;7.460;2023-03-16T04:33:48;99883.69;;;4.19;57.30
59055;BME280;44845;51.444;7.460;2023-03-16T04:36:15;99883.63;;;4.15;56.74
59055;BME280;44845;51.444;7.460;2023-03-16T04:38:40;99882.88;;;4.20;56.34
59055;BME280;44845;51.444;7.460;2023-03-16T04:41:06;99884.34;;;4.08;56.25
59055;BME280;44845;51.444;7.460;2023-03-16T04:43:32;99874.94;;;4.12;57.01
59055;BME280;44845;51.444;7.460;2023-03-16T04:45:59;99879.38;;;4.18;56.98
59055;BME280;44845;51.444;7.460;2023-03-16T04:48:26;99875.91;;;4.19;57.20
59055;BME280;44845;51.444;7.460;2023-03-16T04:50:51;99874.03;;;4.11;57.01
59055;BME280;44845;51.444;7.460;2023-03-16T04:53:16;99864.53;;;4.12;57.01
59055;BME280;44845;51.444;7.460;2023-03-16T04:55:44;99861.19;;;4.18;57.28
59055;BME280;44845;51.444;7.460;2023-03-16T04:58:09;99858.63;;;4.21;57.16
59055;BME280;44845;51.444;7.460;2023-03-16T05:00:34;99868.03;;;4.12;57.15
59055;BME280;44845;51.444;7.460;2023-03-16T05:03:00;99862.84;;;4.14;57.29
59055;BME280;44845;51.444;7.460;2023-03-16T05:05:28;99859.25;;;4.05;57.51
59055;BME280;44845;51.444;7.460;2023-03-16T05:07:53;99855.06;;;4.15;57.87
59055;BME280;44845;51.444;7.460;2023-03-16T05:10:19;99859.41;;;4.15;57.42
59055;BME280;44845;51.444;7.460;2023-03-16T05:12:44;99862.91;;;4.17;57.69
59055;BME280;44845;51.444;7.460;2023-03-16T05:15:10;99855.03;;;4.12;57.74
59055;BME280;44845;51.444;7.460;2023-03-16T05:17:36;99858.59;;;4.18;57.73
59055;BME280;44845;51.444;7.460;2023-03-16T05:20:02;99864.69;;;4.20;57.92
59055;BME280;44845;51.444;7.460;2023-03-16T05:22:32;99867.13;;;4.10;57.66
59055;BME280;44845;51.444;7.460;2023-03-16T05:24:59;99855.69;;;4.00;58.37
59055;BME280;44845;51.444;7.460;2023-03-16T05:27:28;99858.38;;;4.05;58.92
59055;BME280;44845;51.444;7.460;2023-03-16T05:29:54;99854.22;;;4.15;58.35
59055;BME280;44845;51.444;7.460;2023-03-16T05:32:19;99853.44;;;4.21;58.35
59055;BME280;44845;51.444;7.460;2023-03-16T05:34:44;99855.03;;;4.12;58.67
59055;BME280;44845;51.444;7.460;2023-03-16T05:37:10;99849.03;;;4.15;58.40
59055;BME280;44845;51.444;7.460;2023-03-16T05:39:35;99853.44;;;4.21;58.16
59055;BME280;44845;51.444;7.460;2023-03-16T05:42:01;99861.38;;;4.27;58.91
59055;BME280;44845;51.444;7.460;2023-03-16T05:44:27;99859.44;;;4.16;59.34
59055;BME280;44845;51.444;7.460;2023-03-16T05:46:53;99856.91;;;4.20;58.40
59055;BME280;44845;51.444;7.460;2023-03-16T05:49:18;99856.03;;;4.21;58.53
59055;BME280;44845;51.444;7.460;2023-03-16T05:51:43;99855.13;;;4.19;58.20
59055;BME280;44845;51.444;7.460;2023-03-16T05:54:09;99858.69;;;4.24;58.63
59055;BME280;44845;51.444;7.460;2023-03-16T05:56:34;99860.53;;;4.30;58.28
59055;BME280;44845;51.444;7.460;2023-03-16T05:59:00;99851.94;;;4.32;59.26
59055;BME280;44845;51.444;7.460;2023-03-16T06:01:25;99863.06;;;4.25;58.22
59055;BME280;44845;51.444;7.460;2023-03-16T06:03:51;99871.91;;;4.36;57.97
59055;BME280;44845;51.444;7.460;2023-03-16T06:06:18;99874.44;;;4.33;58.51
59055;BME280;44845;51.444;7.460;2023-03-16T06:08:43;99877.03;;;4.32;57.89
59055;BME280;44845;51.444;7.460;2023-03-16T06:11:10;99871.97;;;4.39;58.35
59055;BME280;44845;51.444;7.460;2023-03-16T06:13:36;99872.94;;;4.46;58.27
59055;BME280;44845;51.444;7.460;2023-03-16T06:16:01;99873.81;;;4.47;58.72
59055;BME280;44845;51.444;7.460;2023-03-16T06:18:27;99879.97;;;4.52;58.57
59055;BME280;44845;51.444;7.460;2023-03-16T06:20:52;99872.00;;;4.41;57.83
59055;BME280;44845;51.444;7.460;2023-03-16T06:23:18;99876.47;;;4.50;57.92
59055;BME280;44845;51.444;7.460;2023-03-16T06:25:48;99873.84;;;4.48;57.47
59055;BME280;44845;51.444;7.460;2023-03-16T06:28:15;99873.75;;;4.42;58.76
59055;BME280;44845;51.444;7.460;2023-03-16T06:30:41;99868.72;;;4.52;58.34
59055;BME280;44845;51.444;7.460;2023-03-16T06:33:07;99873.09;;;4.54;57.59
59055;BME280;44845;51.444;7.460;2023-03-16T06:35:32;99871.31;;;4.53;57.39
59055;BME280;44845;51.444;7.460;2023-03-16T06:37:58;99883.69;;;4.67;57.95
59055;BME280;44845;51.444;7.460;2023-03-16T06:40:24;99876.78;;;4.69;57.57
59055;BME280;44845;51.444;7.460;2023-03-16T06:42:49;99872.56;;;4.77;58.45
59055;BME280;44845;51.444;7.460;2023-03-16T06:45:15;99864.78;;;4.77;58.20
59055;BME280;44845;51.444;7.460;2023-03-16T06:47:46;99869.94;;;4.74;57.16
59055;BME280;44845;51.444;7.460;2023-03-16T06:50:12;99875.16;;;4.74;58.13
59055;BME280;44845;51.444;7.460;2023-03-16T06:52:38;99875.22;;;4.80;57.67
59055;BME280;44845;51.444;7.460;2023-03-16T06:55:03;99876.13;;;4.82;56.97
59055;BME280;44845;51.444;7.460;2023-03-16T06:57:29;99875.38;;;4.88;57.75
59055;BME280;44845;51.444;7.460;2023-03-16T06:59:55;99871.88;;;4.88;58.00
59055;BME280;44845;51.444;7.460;2023-03-16T07:02:20;99873.53;;;4.82;57.02
59055;BME280;44845;51.444;7.460;2023-03-16T07:04:48;99883.19;;;4.90;57.03
59055;BME280;44845;51.444;7.460;2023-03-16T07:07:13;99882.28;;;4.86;57.57
59055;BME280;44845;51.444;7.460;2023-03-16T07:09:39;99885.06;;;4.99;57.50
59055;BME280;44845;51.444;7.460;2023-03-16T07:12:04;99871.13;;;4.95;57.72
59055;BME280;44845;51.444;7.460;2023-03-16T07:14:30;99873.88;;;5.04;57.72
59055;BME280;44845;51.444;7.460;2023-03-16T07:16:55;99880.88;;;5.09;56.93
59055;BME280;44845;51.444;7.460;2023-03-16T07:19:21;99881.84;;;5.17;57.49
59055;BME280;44845;51.444;7.460;2023-03-16T07:21:47;99875.69;;;5.10;57.04
59055;BME280;44845;51.444;7.460;2023-03-16T07:24:12;99875.81;;;5.18;56.59
59055;BME280;44845;51.444;7.460;2023-03-16T07:26:38;99874.06;;;5.17;57.86
59055;BME280;44845;51.444;7.460;2023-03-16T07:29:04;99885.53;;;5.30;57.59
59055;BME280;44845;51.444;7.460;2023-03-16T07:31:31;99883.03;;;5.38;57.98
59055;BME280;44845;51.444;7.460;2023-03-16T07:33:57;99881.38;;;5.43;57.45
59055;BME280;44845;51.444;7.460;2023-03-16T07:36:22;99877.84;;;5.41;56.62
59055;BME280;44845;51.444;7.460;2023-03-16T07:38:48;99886.47;;;5.38;57.32
59055;BME280;44845;51.444;7.460;2023-03-16T07:41:13;99878.66;;;5.37;55.88
59055;BME280;44845;51.444;7.460;2023-03-16T07:43:39;99885.72;;;5.46;57.18
59055;BME280;44845;51.444;7.460;2023-03-16T07:46:04;99878.66;;;5.35;57.03
59055;BME280;44845;51.444;7.460;2023-03-16T07:48:30;99890.91;;;5.46;56.81
59055;BME280;44845;51.444;7.460;2023-03-16T07:50:56;99887.13;;;5.22;55.73
59055;BME280;44845;51.444;7.460;2023-03-16T07:53:22;99891.63;;;5.34;55.52
59055;BME280;44845;51.444;7.460;2023-03-16T07:55:47;99890.91;;;5.44;57.12
59055;BME280;44845;51.444;7.460;2023-03-16T07:58:12;99887.53;;;5.51;56.86
59055;BME280;44845;51.444;7.460;2023-03-16T08:00:38;99891.97;;;5.59;56.20
59055;BME280;44845;51.444;7.460;2023-03-16T08:03:04;99890.38;;;5.70;55.67
59055;BME280;44845;51.444;7.460;2023-03-16T08:05:30;99897.53;;;5.87;57.46
59055;BME280;44845;51.444;7.460;2023-03-16T08:07:59;99899.31;;;5.93;56.91
59055;BME280;44845;51.444;7.460;2023-03-16T08:10:26;99894.22;;;6.01;57.04
59055;BME280;44845;51.444;7.460;2023-03-16T08:12:51;99887.34;;;6.06;55.11
59055;BME280;44845;51.444;7.460;2023-03-16T08:15:17;99883.91;;;6.07;54.93
59055;BME280;44845;51.444;7.460;2023-03-16T08:17:43;99879.59;;;6.11;53.58
59055;BME280;44845;51.444;7.460;2023-03-16T08:20:10;99870.91;;;6.10;54.87
59055;BME280;44845;51.444;7.460;2023-03-16T08:22:39;99871.84;;;6.15;55.33
59055;BME280;44845;51.444;7.460;2023-03-16T08:25:05;99866.72;;;6.25;55.43
59055;BME280;44845;51.444;7.460;2023-03-16T08:27:31;99875.41;;;6.24;54.56
59055;BME280;44845;51.444;7.460;2023-03-16T08:29:57;99860.53;;;6.15;54.41
59055;BME280;44845;51.444;7.460;2023-03-16T08:32:28;99865.00;;;6.24;53.46
59055;BME280;44845;51.444;7.460;2023-03-16T08:34:54;99857.25;;;6.32;54.83
59055;BME280;44845;51.444;7.460;2023-03-16T08:37:21;99860.75;;;6.34;54.75
59055;BME280;44845;51.444;7.460;2023-03-16T08:39:48;99851.19;;;6.34;54.50
59055;BME280;44845;51.444;7.460;2023-03-16T08:42:16;99856.53;;;6.50;54.16
59055;BME280;44845;51.444;7.460;2023-03-16T08:44:42;99854.84;;;6.55;55.10
59055;BME280;44845;51.444;7.460;2023-03-16T08:47:08;99859.25;;;6.61;54.39
59055;BME280;44845;51.444;7.460;2023-03-16T08:49:34;99856.63;;;6.59;54.31
59055;BME280;44845;51.444;7.460;2023-03-16T08:52:01;99852.31;;;6.66;53.72
59055;BME280;44845;51.444;7.460;2023-03-16T08:54:26;99859.34;;;6.72;53.17
59055;BME280;44845;51.444;7.460;2023-03-16T08:56:51;99846.22;;;6.61;53.11
59055;BME280;44845;51.444;7.460;2023-03-16T08:59:17;99858.47;;;6.76;53.93
59055;BME280;44845;51.444;7.460;2023-03-16T09:01:42;99852.47;;;6.82;54.13
59055;BME280;44845;51.444;7.460;2023-03-16T09:04:08;99854.22;;;6.84;54.95
59055;BME280;44845;51.444;7.460;2023-03-16T09:06:33;99855.97;;;6.87;52.55
59055;BME280;44845;51.444;7.460;2023-03-16T09:08:58;99851.69;;;6.95;53.30
59055;BME280;44845;51.444;7.460;2023-03-16T09:11:24;99859.63;;;7.09;54.51
59055;BME280;44845;51.444;7.460;2023-03-16T09:13:52;99856.94;;;7.02;51.22
59055;BME280;44845;51.444;7.460;2023-03-16T09:16:18;99855.16;;;6.93;53.25
59055;BME280;44845;51.444;7.460;2023-03-16T09:18:44;99872.59;;;7.00;53.74
59055;BME280;44845;51.444;7.460;2023-03-16T09:21:10;99862.91;;;6.86;53.39
59055;BME280;44845;51.444;7.460;2023-03-16T09:23:38;99865.50;;;6.80;54.23
59055;BME280;44845;51.444;7.460;2023-03-16T09:26:04;99859.28;;;6.69;53.98
59055;BME280;44845;51.444;7.460;2023-03-16T09:28:32;99867.16;;;6.70;54.46
59055;BME280;44845;51.444;7.460;2023-03-16T09:30:59;99865.38;;;6.68;52.73
59055;BME280;44845;51.444;7.460;2023-03-16T09:33:26;99868.84;;;6.67;53.21
59055;BME280;44845;51.444;7.460;2023-03-16T09:35:56;99878.50;;;6.77;53.31
59055;BME280;44845;51.444;7.460;2023-03-16T09:38:23;99858.50;;;6.79;53.86
59055;BME280;44845;51.444;7.460;2023-03-16T09:40:59;99868.06;;;6.77;53.98
59055;BME280;44845;51.444;7.460;2023-03-16T09:43:44;99868.16;;;6.88;52.36
59055;BME280;44845;51.444;7.460;2023-03-16T09:46:24;99865.59;;;6.96;54.69
59055;BME280;44845;51.444;7.460;2023-03-16T09:48:53;99868.19;;;6.96;52.88
59055;BME280;44845;51.444;7.460;2023-03-16T09:53:47;99863.13;;;7.15;54.30
59055;BME280;44845;51.444;7.460;2023-03-16T09:56:26;99862.25;;;7.16;53.11
59055;BME280;44845;51.444;7.460;2023-03-16T09:58:53;99863.09;;;7.12;53.05
59055;BME280;44845;51.444;7.460;2023-03-16T10:06:50;99845.94;;;7.54;53.46
59055;BME280;44845;51.444;7.460;2023-03-16T10:09:31;99853.78;;;7.61;53.27
59055;BME280;44845;51.444;7.460;2023-03-16T10:11:59;99852.09;;;7.69;52.68
59055;BME280;44845;51.444;7.460;2023-03-16T10:14:48;99853.84;;;7.80;50.61
59055;BME280;44845;51.444;7.460;2023-03-16T10:17:25;99846.03;;;7.83;51.15
59055;BME280;44845;51.444;7.460;2023-03-16T10:19:54;99849.56;;;7.86;53.31
59055;BME280;44845;51.444;7.460;2023-03-16T10:22:33;99838.22;;;7.83;52.18
59055;BME280;44845;51.444;7.460;2023-03-16T10:27:41;99837.34;;;7.87;51.99
59055;BME280;44845;51.444;7.460;2023-03-16T10:30:26;99840.03;;;8.06;51.93
59055;BME280;44845;51.444;7.460;2023-03-16T10:32:53;99836.50;;;7.88;51.65
59055;BME280;44845;51.444;7.460;2023-03-16T10:35:28;99831.31;;;8.00;51.03
59055;BME280;44845;51.444;7.460;2023-03-16T10:37:55;99821.75;;;8.10;51.41
59055;BME280;44845;51.444;7.460;2023-03-16T10:40:21;99827.84;;;8.14;51.73
59055;BME280;44845;51.444;7.460;2023-03-16T10:42:47;99834.81;;;8.06;51.81
59055;BME280;44845;51.444;7.460;2023-03-16T10:45:28;99847.00;;;8.19;52.46
59055;BME280;44845;51.444;7.460;2023-03-16T10:48:04;99841.75;;;8.16;52.43
59055;BME280;44845;51.444;7.460;2023-03-16T10:50:31;99838.31;;;8.20;51.18
59055;BME280;44845;51.444;7.460;2023-03-16T10:52:56;99834.84;;;8.34;50.68
59055;BME280;44845;51.444;7.460;2023-03-16T10:55:29;99834.84;;;8.37;51.32
59055;BME280;44845;51.444;7.460;2023-03-16T10:57:57;99843.56;;;8.49;52.25
59055;BME280;44845;51.444;7.460;2023-03-16T11:00:32;99827.88;;;8.49;53.33
59055;BME280;44845;51.444;7.460;2023-03-16T11:02:59;99827.88;;;8.52;51.06
59055;BME280;44845;51.444;7.460;2023-03-16T11:05:29;99819.16;;;8.47;51.30
59055;BME280;44845;51.444;7.460;2023-03-16T11:10:38;99793.03;;;8.42;52.44
59055;BME280;44845;51.444;7.460;2023-03-16T11:13:15;99796.50;;;8.30;51.95
59055;BME280;44845;51.444;7.460;2023-03-16T11:15:58;99800.84;;;8.34;52.40
59055;BME280;44845;51.444;7.460;2023-03-16T11:18:40;99793.00;;;8.21;51.88
59055;BME280;44845;51.444;7.460;2023-03-16T11:21:17;99781.72;;;8.40;52.80
59055;BME280;44845;51.444;7.460;2023-03-16T11:23:51;99773.88;;;8.26;52.27
59055;BME280;44845;51.444;7.460;2023-03-16T11:26:25;99773.84;;;8.41;52.50
59055;BME280;44845;51.444;7.460;2023-03-16T11:29:01;99773.84;;;8.41;52.01
59055;BME280;44845;51.444;7.460;2023-03-16T11:31:46;99771.25;;;8.43;52.50
59055;BME280;44845;51.444;7.460;2023-03-16T11:34:17;99779.09;;;8.35;52.81
59055;BME280;44845;51.444;7.460;2023-03-16T11:36:53;99776.50;;;8.48;52.20
59055;BME280;44845;51.444;7.460;2023-03-16T11:39:23;99768.63;;;8.51;51.95
59055;BME280;44845;51.444;7.460;2023-03-16T11:42:08;99754.69;;;8.55;52.38
59055;BME280;44845;51.444;7.460;2023-03-16T11:50:36;99742.47;;;8.73;53.48
59055;BME280;44845;51.444;7.460;2023-03-16T11:56:17;99744.22;;;8.89;53.42
59055;BME280;44845;51.444;7.460;2023-03-16T12:04:44;99733.72;;;8.91;49.74
59055;BME280;44845;51.444;7.460;2023-03-16T12:07:24;99720.63;;;8.99;49.63
59055;BME280;44845;51.444;7.460;2023-03-16T12:13:22;99719.66;;;9.23;52.12
59055;BME280;44845;51.444;7.460;2023-03-16T12:15:58;99712.69;;;9.21;51.88
59055;BME280;44845;51.444;7.460;2023-03-16T12:18:38;99702.19;;;9.27;50.54
59055;BME280;44845;51.444;7.460;2023-03-16T12:21:15;99690.00;;;9.23;50.08
59055;BME280;44845;51.444;7.460;2023-03-16T12:23:52;99691.72;;;9.27;49.59
59055;BME280;44845;51.444;7.460;2023-03-16T12:26:22;99678.63;;;9.32;49.70
59055;BME280;44845;51.444;7.460;2023-03-16T12:28:49;99675.16;;;9.28;50.89
59055;BME280;44845;51.444;7.460;2023-03-16T12:31:32;99669.06;;;9.23;49.58
59055;BME280;44845;51.444;7.460;2023-03-16T12:34:06;99660.38;;;9.21;49.31
59055;BME280;44845;51.444;7.460;2023-03-16T12:36:41;99648.13;;;9.26;50.79
59055;BME280;44845;51.444;7.460;2023-03-16T12:39:20;99644.63;;;9.30;50.74
59055;BME280;44845;51.444;7.460;2023-03-16T12:44:46;99633.25;;;9.34;49.35
59055;BME280;44845;51.444;7.460;2023-03-16T12:47:32;99621.00;;;9.40;49.69
59055;BME280;44845;51.444;7.460;2023-03-16T12:50:10;99615.81;;;9.33;50.81
59055;BME280;44845;51.444;7.460;2023-03-16T12:52:48;99626.22;;;9.40;49.87
59055;BME280;44845;51.444;7.460;2023-03-16T12:57:44;99617.47;;;9.45;49.85
59055;BME280;44845;51.444;7.460;2023-03-16T13:00:12;99627.88;;;9.52;50.00
59055;BME280;44845;51.444;7.460;2023-03-16T13:02:43;99620.00;;;9.60;50.25
59055;BME280;44845;51.444;7.460;2023-03-16T13:05:15;99623.53;;;9.55;48.62
59055;BME280;44845;51.444;7.460;2023-03-16T13:07:49;99613.09;;;9.51;49.00
59055;BME280;44845;51.444;7.460;2023-03-16T13:10:17;99601.72;;;9.53;49.45
59055;BME280;44845;51.444;7.460;2023-03-16T13:12:45;99592.97;;;9.56;49.83
59055;BME280;44845;51.444;7.460;2023-03-16T13:15:26;99589.41;;;9.65;49.67
59055;BME280;44845;51.444;7.460;2023-03-16T13:20:57;99589.31;;;9.77;50.57
59055;BME280;44845;51.444;7.460;2023-03-16T13:28:41;99576.19;;;9.80;50.18
59055;BME280;44845;51.444;7.460;2023-03-16T13:31:24;99568.25;;;9.87;50.44
59055;BME280;44845;51.444;7.460;2023-03-16T13:33:53;99570.84;;;9.90;49.08
59055;BME280;44845;51.444;7.460;2023-03-16T13:36:21;99561.22;;;9.92;50.41
59055;BME280;44845;51.444;7.460;2023-03-16T13:39:12;99558.59;;;9.95;50.41
59055;BME280;44845;51.444;7.460;2023-03-16T13:41:39;99563.88;;;9.86;49.45
59055;BME280;44845;51.444;7.460;2023-03-16T13:44:10;99556.75;;;10.00;49.80
59055;BME280;44845;51.444;7.460;2023-03-16T13:46:36;99560.34;;;9.91;50.37
59055;BME280;44845;51.444;7.460;2023-03-16T13:49:03;99556.88;;;9.91;49.56
59055;BME280;44845;51.444;7.460;2023-03-16T13:51:31;99545.53;;;9.89;49.96
59055;BME280;44845;51.444;7.460;2023-03-16T13:54:03;99542.03;;;9.90;48.89
59055;BME280;44845;51.444;7.460;2023-03-16T13:56:30;99529.00;;;9.84;48.18
59055;BME280;44845;51.444;7.460;2023-03-16T13:58:57;99529.94;;;9.76;48.56
59055;BME280;44845;51.444;7.460;2023-03-16T14:01:28;99515.06;;;9.82;49.95
59055;BME280;44845;51.444;7.460;2023-03-16T14:03:57;99520.47;;;9.66;49.22
59055;BME280;44845;51.444;7.460;2023-03-16T14:06:28;99520.50;;;9.60;50.65
59055;BME280;44845;51.444;7.460;2023-03-16T14:09:00;99510.03;;;9.60;48.95
59055;BME280;44845;51.444;7.460;2023-03-16T14:11:27;99510.91;;;9.57;50.69